首页
METAR-TAF:

METAR-TAF

机场 :

罗纳德·里根华盛顿国家机场

华盛顿, 弗吉尼亚州, 美国

纬度: 38-50-54N, 经度: 077-02-03W, 海拔: 4米

当前天气观测

该预报发布于1小时和3分钟前的02:52 UTC
风速9节,风向西北
温度 2°C
湿度 47%
气压 1035 hPa
能見度: 16.1公里
天空无云

METAR: KDCA 120252Z 31009KT 10SM CLR 02/M08 A3055 RMK AO2 SLP346 T00221083 51028

时间: 22:55 (03:55 UTC)

预报

该预报发布于4小时和15分钟前的23:40 UTC
预报有效从12日的 00点(UTC)到 13日的 06点(UTC)
风速5节,风向西转西北
能見度: 10公里
少量云层高于25000英尺
从 12日的 0800点(UTC)
风速5节,风向北转西北
能見度: 10公里
少量云层高于25000英尺
从 12日的 1200点(UTC)
风速4节,风向
能見度: 10公里
少量云层高于25000英尺
从 12日的 1600点(UTC)
风速4节,风向东转东北
能見度: 10公里
少量云层高于25000英尺
从 12日的 2000点(UTC)
风速4节,风向东转东南
能見度: 10公里
少量云层高于25000英尺

TAF: KDCA 112340Z 1200/1306 30005KT P6SM FEW250 FM120800 34005KT P6SM FEW250 FM121200 01004KT P6SM FEW250 FM121600 06004KT P6SM FEW250 FM122000 11004KT P6SM FEW250

超过4000个机场的气象观测和天气预报(METAR&TAF报告)。

可查询的气象台以黄色和红色小点在地图上表示。

将鼠标移到小点上方,可查看气象台名称。

然后点击查看天气观测和预报。

如需切换地图:点击带黑十字的绿色按钮放大地图;点击带横线的绿色按钮缩小地图;或者点击绿色箭头查看邻近地区的地图。


METAR-TAF: